createdAt,value
2023-03-12T00:01:21.543Z,10.70
2023-03-12T00:06:27.549Z,13.20
2023-03-12T00:11:33.686Z,12.60
2023-03-12T00:16:39.318Z,12.40
2023-03-12T00:21:44.839Z,12.60
2023-03-12T00:26:50.472Z,15.30
2023-03-12T00:31:56.063Z,15.30
2023-03-12T00:37:01.621Z,15.00
2023-03-12T00:42:07.909Z,16.00
2023-03-12T00:47:13.874Z,14.00
2023-03-12T00:52:19.459Z,14.00
2023-03-12T00:57:25.485Z,15.50
2023-03-12T01:02:31.086Z,15.70
2023-03-12T01:07:37.097Z,19.30
2023-03-12T01:12:42.695Z,18.60
2023-03-12T01:17:48.264Z,15.80
2023-03-12T01:22:55.004Z,17.30
2023-03-12T01:28:00.602Z,17.30
2023-03-12T01:33:06.338Z,20.00
2023-03-12T01:38:14.701Z,17.00
2023-03-12T01:43:29.967Z,16.20
2023-03-12T01:48:40.121Z,16.70
2023-03-12T01:53:49.683Z,18.60
2023-03-12T01:58:58.847Z,15.50
2023-03-12T02:04:05.764Z,17.00
2023-03-12T02:09:12.740Z,17.50
2023-03-12T02:14:18.539Z,16.70
2023-03-12T02:19:34.107Z,15.90
2023-03-12T02:24:46.531Z,14.50
2023-03-12T02:29:52.532Z,15.90
2023-03-12T02:34:59.787Z,15.30
2023-03-12T02:40:13.274Z,17.70
2023-03-12T02:45:19.977Z,17.60
2023-03-12T02:50:25.595Z,20.00
2023-03-12T02:55:31.308Z,14.30
2023-03-12T03:00:37.846Z,18.50
2023-03-12T03:05:43.742Z,13.40
2023-03-12T03:10:52.756Z,16.80
2023-03-12T03:15:59.885Z,11.40
2023-03-12T03:21:09.096Z,14.50
2023-03-12T03:26:16.619Z,15.50
2023-03-12T03:31:22.764Z,18.60
2023-03-12T03:36:29.157Z,16.60
2023-03-12T03:41:41.678Z,15.90
2023-03-12T03:46:47.983Z,14.20
2023-03-12T03:51:54.014Z,15.80
2023-03-12T03:57:08.303Z,13.40
2023-03-12T04:02:13.840Z,12.90
2023-03-12T04:07:21.326Z,12.70
2023-03-12T04:12:28.090Z,12.90
2023-03-12T04:17:33.866Z,13.80
2023-03-12T04:22:40.324Z,12.00
2023-03-12T04:27:45.931Z,11.30
2023-03-12T04:32:51.775Z,12.70
2023-03-12T04:37:57.574Z,14.40
2023-03-12T04:43:03.659Z,12.10
2023-03-12T04:48:09.289Z,11.40
2023-03-12T04:53:15.076Z,9.10
2023-03-12T04:58:22.349Z,9.50
2023-03-12T05:05:31.012Z,10.70
2023-03-12T05:10:36.782Z,8.20
2023-03-12T05:15:42.374Z,13.80
2023-03-12T05:20:47.983Z,10.70
2023-03-12T05:25:53.953Z,10.10
2023-03-12T05:31:01.391Z,12.10
2023-03-12T05:36:09.391Z,10.20
2023-03-12T05:41:21.117Z,9.90
2023-03-12T05:46:28.542Z,11.20
2023-03-12T05:51:34.328Z,8.50
2023-03-12T05:56:40.837Z,12.10
2023-03-12T06:01:46.693Z,11.00
2023-03-12T06:06:52.949Z,10.20
2023-03-12T06:11:58.481Z,11.50
2023-03-12T06:17:04.608Z,16.90
2023-03-12T06:22:10.312Z,10.70
2023-03-12T06:27:16.528Z,13.90
2023-03-12T06:32:22.129Z,9.20
2023-03-12T06:37:28.274Z,10.80
2023-03-12T06:42:33.534Z,10.10
2023-03-12T06:47:38.957Z,11.70
2023-03-12T06:52:44.386Z,11.00
2023-03-12T06:57:50.087Z,5.70
2023-03-12T07:02:55.450Z,5.60
2023-03-12T07:08:01.343Z,6.80
2023-03-12T07:13:07.642Z,7.20
2023-03-12T07:18:13.916Z,6.70
2023-03-12T07:23:20.083Z,5.30
2023-03-12T07:28:25.702Z,8.40
2023-03-12T07:33:31.660Z,7.30
2023-03-12T07:38:37.529Z,6.20
2023-03-12T07:43:43.373Z,6.50
2023-03-12T07:48:48.933Z,12.70
2023-03-12T07:53:54.952Z,7.20
2023-03-12T07:59:00.760Z,22.20
2023-03-12T08:04:06.967Z,43.80
2023-03-12T08:09:13.170Z,6.90
2023-03-12T08:14:19.288Z,3.90
2023-03-12T08:19:26.233Z,3.80
2023-03-12T08:24:47.660Z,3.80
2023-03-12T08:29:53.802Z,4.80
2023-03-12T08:34:59.584Z,6.00
2023-03-12T08:40:13.132Z,5.80
2023-03-12T08:45:20.142Z,6.40
2023-03-12T08:50:29.385Z,5.70
2023-03-12T08:55:35.116Z,4.20
2023-03-12T09:00:40.928Z,4.60
2023-03-12T09:05:47.630Z,3.80
2023-03-12T09:10:53.640Z,2.90
2023-03-12T09:16:04.121Z,3.80
2023-03-12T09:21:09.794Z,3.70
2023-03-12T09:26:18.535Z,3.80
2023-03-12T09:31:24.567Z,3.90
2023-03-12T09:36:31.712Z,3.50
2023-03-12T09:41:41.339Z,3.20
2023-03-12T09:46:51.407Z,4.50
2023-03-12T09:52:02.566Z,5.00
2023-03-12T09:57:22.860Z,4.30
2023-03-12T10:02:53.530Z,6.10
2023-03-12T10:08:17.387Z,4.50
2023-03-12T10:13:52.886Z,5.10
2023-03-12T10:19:10.697Z,5.60
2023-03-12T10:24:31.668Z,6.00
2023-03-12T10:34:49.483Z,4.00
2023-03-12T10:39:56.366Z,2.90
2023-03-12T10:45:21.440Z,4.60
2023-03-12T10:50:41.949Z,3.40
2023-03-12T10:56:14.126Z,6.10
2023-03-12T11:01:24.439Z,4.50
2023-03-12T11:06:31.025Z,4.00
2023-03-12T11:11:37.842Z,3.50
2023-03-12T11:16:43.653Z,5.20
2023-03-12T11:21:59.355Z,6.30
2023-03-12T11:27:32.397Z,4.80
2023-03-12T11:32:41.734Z,5.20
2023-03-12T11:37:59.773Z,4.50
2023-03-12T11:43:29.252Z,2.80
2023-03-12T11:48:52.506Z,4.10
2023-03-12T11:54:19.439Z,6.00
2023-03-12T11:59:39.137Z,4.50
2023-03-12T12:05:01.868Z,6.50
2023-03-12T12:10:19.613Z,4.10
2023-03-12T12:15:34.560Z,5.80
2023-03-12T12:20:48.615Z,5.30
2023-03-12T12:26:07.240Z,8.60
2023-03-12T12:31:30.368Z,7.40
2023-03-12T12:36:37.774Z,6.80
2023-03-12T12:41:51.459Z,6.30
2023-03-12T12:47:01.435Z,7.50
2023-03-12T12:52:12.926Z,7.20
2023-03-12T13:02:29.497Z,8.20
2023-03-12T13:07:35.341Z,7.10
2023-03-12T13:12:52.028Z,5.80
2023-03-12T13:18:20.498Z,8.40
2023-03-12T13:23:38.177Z,4.70
2023-03-12T13:29:11.982Z,7.70
2023-03-12T13:34:51.770Z,4.90
2023-03-12T13:40:02.012Z,8.00
2023-03-12T13:45:25.652Z,6.80
2023-03-12T13:50:32.741Z,4.30
2023-03-12T13:55:49.441Z,5.60
2023-03-12T14:00:57.693Z,7.40
2023-03-12T14:06:12.505Z,6.90
2023-03-12T14:11:42.761Z,6.50
2023-03-12T14:16:51.883Z,4.10
2023-03-12T14:22:01.746Z,3.90
2023-03-12T14:27:14.288Z,4.80
2023-03-12T14:32:23.916Z,5.40
2023-03-12T14:37:38.280Z,4.10
2023-03-12T14:42:43.786Z,3.40
2023-03-12T14:47:52.743Z,6.30
2023-03-12T14:53:14.624Z,6.50
2023-03-12T14:58:21.233Z,3.90
2023-03-12T15:03:28.976Z,3.40
2023-03-12T15:08:39.842Z,5.10
2023-03-12T15:13:47.363Z,6.00
2023-03-12T15:18:53.923Z,5.00
2023-03-12T15:23:59.502Z,5.50
2023-03-12T15:29:16.890Z,5.90
2023-03-12T15:34:34.437Z,6.60
2023-03-12T15:39:40.573Z,5.40
2023-03-12T15:44:49.471Z,7.10
2023-03-12T15:49:57.947Z,5.60
2023-03-12T15:55:26.664Z,9.60
2023-03-12T16:00:43.389Z,7.50
2023-03-12T16:05:50.594Z,7.00
2023-03-12T16:10:57.077Z,6.80
2023-03-12T16:16:02.477Z,8.90
2023-03-12T16:21:08.854Z,5.80
2023-03-12T16:26:15.605Z,5.70
2023-03-12T16:31:21.002Z,7.30
2023-03-12T16:36:28.031Z,6.70
2023-03-12T16:41:33.877Z,10.20
2023-03-12T16:46:39.482Z,6.90
2023-03-12T16:51:45.066Z,8.20
2023-03-12T16:56:50.956Z,7.10
2023-03-12T17:01:56.564Z,9.90
2023-03-12T17:07:02.015Z,7.00
2023-03-12T17:12:15.618Z,8.50
2023-03-12T17:17:23.264Z,8.80
2023-03-12T17:22:28.789Z,9.00
2023-03-12T17:27:34.700Z,21.90
2023-03-12T17:32:40.379Z,22.10
2023-03-12T17:37:48.512Z,21.80
2023-03-12T17:42:54.741Z,22.70
2023-03-12T17:48:00.415Z,20.50
2023-03-12T17:53:05.949Z,17.90
2023-03-12T17:58:11.377Z,16.30
2023-03-12T18:03:17.070Z,20.10
2023-03-12T18:08:23.100Z,26.70
2023-03-12T18:13:28.565Z,30.40
2023-03-12T18:18:34.782Z,41.00
2023-03-12T18:23:42.687Z,42.40
2023-03-12T18:28:49.287Z,36.30
2023-03-12T18:33:54.813Z,38.10
2023-03-12T18:39:04.511Z,30.40
2023-03-12T18:44:10.321Z,30.00
2023-03-12T18:49:16.250Z,24.20
2023-03-12T18:54:24.584Z,36.60
2023-03-12T18:59:32.306Z,81.10
2023-03-12T19:04:38.032Z,59.00
2023-03-12T19:09:44.111Z,30.30
2023-03-12T19:14:49.918Z,19.70
2023-03-12T19:19:55.761Z,29.50
2023-03-12T19:25:01.315Z,31.00
2023-03-12T19:30:08.883Z,23.90
2023-03-12T19:35:15.628Z,23.10
2023-03-12T19:40:21.234Z,23.50
2023-03-12T19:45:26.843Z,20.80
2023-03-12T19:50:32.199Z,25.20
2023-03-12T19:55:37.630Z,27.10
2023-03-12T20:00:43.657Z,22.60
2023-03-12T20:05:50.573Z,22.80
2023-03-12T20:11:02.899Z,22.80
2023-03-12T20:16:11.436Z,23.70
2023-03-12T20:21:17.241Z,25.60
2023-03-12T20:26:22.910Z,28.50
2023-03-12T20:31:28.408Z,27.60
2023-03-12T20:36:33.947Z,26.10
2023-03-12T20:41:39.335Z,27.30
2023-03-12T20:46:46.244Z,26.90
2023-03-12T20:51:51.618Z,29.00
2023-03-12T20:56:57.050Z,30.70
2023-03-12T21:02:02.577Z,30.70
2023-03-12T21:07:08.240Z,33.90
2023-03-12T21:12:14.347Z,40.60
2023-03-12T21:17:19.822Z,66.10
2023-03-12T21:22:28.733Z,71.80
2023-03-12T21:27:47.933Z,85.70
2023-03-12T21:32:55.785Z,100.70
2023-03-12T21:38:02.615Z,97.00
2023-03-12T21:43:08.128Z,110.20
2023-03-12T21:48:13.922Z,113.20
2023-03-12T21:53:23.768Z,111.80
2023-03-12T21:58:30.832Z,113.20
2023-03-12T22:03:37.334Z,140.30
2023-03-12T22:08:43.777Z,129.20
2023-03-12T22:13:49.298Z,92.40
2023-03-12T22:18:54.954Z,50.30
2023-03-12T22:24:01.952Z,45.10
2023-03-12T22:29:08.059Z,46.60
2023-03-12T22:34:13.417Z,40.40
2023-03-12T22:39:20.551Z,44.90
2023-03-12T22:44:26.439Z,42.10
2023-03-12T22:49:31.876Z,47.80
2023-03-12T22:54:37.576Z,51.10
2023-03-12T22:59:43.183Z,46.70
2023-03-12T23:04:48.668Z,52.70
2023-03-12T23:09:54.109Z,45.60
2023-03-12T23:14:59.764Z,44.00
2023-03-12T23:20:08.088Z,46.20
2023-03-12T23:25:13.845Z,43.60
2023-03-12T23:30:19.626Z,47.80
2023-03-12T23:35:25.364Z,44.40
2023-03-12T23:40:30.865Z,43.20
2023-03-12T23:45:36.651Z,45.50
2023-03-12T23:50:42.160Z,38.90
2023-03-12T23:55:57.169Z,40.00
